<?xml version="1.0" encoding="UTF-8" standalone="no" ?>
<gpx xmlns="http://www.topografix.com/GPX/1/1" xmlns:xsi="http://www.w3.org/2001/XMLSchema-instance" xsi:schemaLocation="http://www.topografix.com/GPX/1/1 http://www.topografix.com/GPX/1/1/gpx.xsd" version="1.1" creator="VisuGPX - https://www.visugpx.com">
  <metadata>
    <name>boucles beaumont</name>
    <desc><![CDATA[boucles beaumont du périgord]]></desc>
  </metadata>
  <trk>
    <name><![CDATA[BBmt12]]></name>
    <trkseg>
      <trkpt lat="44.69418" lon="0.7321">
        <ele>141</ele>
        <time>2008-12-03T14:01:14Z</time>
      </trkpt>
      <trkpt lat="44.69435" lon="0.73223">
        <ele>143</ele>
        <time>2008-12-03T14:01:18Z</time>
      </trkpt>
      <trkpt lat="44.6945" lon="0.73238">
        <ele>144</ele>
        <time>2008-12-03T14:01:21Z</time>
      </trkpt>
      <trkpt lat="44.6946" lon="0.7326">
        <ele>145</ele>
        <time>2008-12-03T14:01:24Z</time>
      </trkpt>
      <trkpt lat="44.6947" lon="0.7329">
        <ele>142</ele>
        <time>2008-12-03T14:01:27Z</time>
      </trkpt>
      <trkpt lat="44.69478" lon="0.7332">
        <ele>138</ele>
        <time>2008-12-03T14:01:30Z</time>
      </trkpt>
      <trkpt lat="44.6949" lon="0.73353">
        <ele>135</ele>
        <time>2008-12-03T14:01:33Z</time>
      </trkpt>
      <trkpt lat="44.69513" lon="0.73363">
        <ele>132</ele>
        <time>2008-12-03T14:01:36Z</time>
      </trkpt>
      <trkpt lat="44.69538" lon="0.73358">
        <ele>130</ele>
        <time>2008-12-03T14:01:39Z</time>
      </trkpt>
      <trkpt lat="44.69558" lon="0.73355">
        <ele>127</ele>
        <time>2008-12-03T14:01:41Z</time>
      </trkpt>
      <trkpt lat="44.69585" lon="0.7336">
        <ele>126</ele>
        <time>2008-12-03T14:01:44Z</time>
      </trkpt>
      <trkpt lat="44.69605" lon="0.73363">
        <ele>125</ele>
        <time>2008-12-03T14:01:46Z</time>
      </trkpt>
      <trkpt lat="44.69625" lon="0.73365">
        <ele>124</ele>
        <time>2008-12-03T14:01:48Z</time>
      </trkpt>
      <trkpt lat="44.69653" lon="0.7337">
        <ele>122</ele>
        <time>2008-12-03T14:01:51Z</time>
      </trkpt>
      <trkpt lat="44.69673" lon="0.73375">
        <ele>120</ele>
        <time>2008-12-03T14:01:53Z</time>
      </trkpt>
      <trkpt lat="44.69695" lon="0.7338">
        <ele>119</ele>
        <time>2008-12-03T14:01:56Z</time>
      </trkpt>
      <trkpt lat="44.69718" lon="0.7339">
        <ele>118</ele>
        <time>2008-12-03T14:01:59Z</time>
      </trkpt>
      <trkpt lat="44.70046" lon="0.73433">
        <ele>124</ele>
        <time>2008-12-03T14:02:02Z</time>
      </trkpt>
      <trkpt lat="44.70008" lon="0.72829">
        <ele>131</ele>
        <time>2008-12-03T14:02:05Z</time>
      </trkpt>
      <trkpt lat="44.69429" lon="0.73196">
        <ele>136</ele>
        <time>2008-12-03T14:02:08Z</time>
      </trkpt>
    </trkseg>
  </trk>
</gpx>